createdAt,value
2022-10-22T00:00:09.931Z,100467.72
2022-10-22T00:02:56.903Z,100468.84
2022-10-22T00:05:23.660Z,100464.09
2022-10-22T00:07:50.577Z,100465.03
2022-10-22T00:10:19.007Z,100458.81
2022-10-22T00:12:46.079Z,100463.22
2022-10-22T00:15:12.980Z,100456.53
2022-10-22T00:17:40.119Z,100468.00
2022-10-22T00:20:07.675Z,100470.72
2022-10-22T00:22:34.619Z,100466.97
2022-10-22T00:25:01.407Z,100463.56
2022-10-22T00:27:28.423Z,100458.97
2022-10-22T00:29:55.129Z,100460.09
2022-10-22T00:32:22.067Z,100457.47
2022-10-22T00:34:48.923Z,100453.03
2022-10-22T00:37:15.913Z,100453.03
2022-10-22T00:39:42.659Z,100442.50
2022-10-22T00:42:23.662Z,100432.09
2022-10-22T00:45:12.089Z,100433.88
2022-10-22T00:48:09.915Z,100441.03
2022-10-22T00:50:44.922Z,100432.38
2022-10-22T00:53:16.624Z,100428.91
2022-10-22T00:55:46.511Z,100429.91
2022-10-22T00:58:14.119Z,100425.47
2022-10-22T01:00:41.118Z,100426.31
2022-10-22T01:03:08.550Z,100428.06
2022-10-22T01:05:43.831Z,100436.63
2022-10-22T01:08:25.379Z,100441.13
2022-10-22T01:11:20.960Z,100438.59
2022-10-22T01:14:24.337Z,100442.94
2022-10-22T01:17:09.757Z,100443.88
2022-10-22T01:20:14.082Z,100439.59
2022-10-22T01:22:54.861Z,100444.88
2022-10-22T01:25:29.948Z,100431.69
2022-10-22T01:28:23.710Z,100439.03
2022-10-22T01:30:54.507Z,100430.34
2022-10-22T01:33:23.961Z,100434.09
2022-10-22T01:35:51.932Z,100440.22
2022-10-22T01:38:21.756Z,100450.25
2022-10-22T01:40:50.456Z,100447.72
2022-10-22T01:43:17.219Z,100439.88
2022-10-22T01:45:54.109Z,100432.06
2022-10-22T01:48:48.555Z,100423.81
2022-10-22T01:51:30.564Z,100427.03
2022-10-22T01:54:09.421Z,100414.97
2022-10-22T01:56:42.312Z,100407.16
2022-10-22T01:59:33.076Z,100406.91
2022-10-22T02:02:02.591Z,100400.69
2022-10-22T02:04:59.008Z,100410.56
2022-10-22T02:07:31.714Z,100414.97
2022-10-22T02:10:01.287Z,100405.38
2022-10-22T02:12:33.203Z,100400.88
2022-10-22T02:15:02.276Z,100409.72
2022-10-22T02:17:34.984Z,100409.72
2022-10-22T02:20:19.838Z,100409.34
2022-10-22T02:22:47.353Z,100411.09
2022-10-22T02:25:15.788Z,100413.00
2022-10-22T02:27:51.747Z,100431.63
2022-10-22T02:30:21.361Z,100429.75
2022-10-22T02:33:01.712Z,100424.50
2022-10-22T02:35:29.779Z,100426.59
2022-10-22T02:37:58.540Z,100420.91
2022-10-22T02:40:26.376Z,100419.03
2022-10-22T02:42:53.412Z,100422.53
2022-10-22T02:45:21.516Z,100419.63
2022-10-22T02:47:48.462Z,100424.19
2022-10-22T02:50:15.315Z,100426.31
2022-10-22T02:52:42.526Z,100426.50
2022-10-22T02:55:09.736Z,100433.34
2022-10-22T02:57:36.765Z,100419.56
2022-10-22T03:00:09.034Z,100428.88
2022-10-22T03:02:35.966Z,100423.13
2022-10-22T03:05:03.343Z,100432.72
2022-10-22T03:07:30.271Z,100434.81
2022-10-22T03:09:57.001Z,100445.19
2022-10-22T03:12:23.919Z,100441.50
2022-10-22T03:14:50.837Z,100442.09
2022-10-22T03:17:18.934Z,100439.63
2022-10-22T03:19:45.698Z,100432.66
2022-10-22T03:22:20.012Z,100430.13
2022-10-22T03:24:49.136Z,100422.31
2022-10-22T03:27:18.382Z,100422.47
2022-10-22T03:29:46.925Z,100419.06
2022-10-22T03:32:13.867Z,100415.22
2022-10-22T03:34:40.615Z,100422.25
2022-10-22T03:37:07.680Z,100408.56
2022-10-22T03:39:36.272Z,100397.34
2022-10-22T03:42:05.345Z,100391.88
2022-10-22T03:44:33.184Z,100385.03
2022-10-22T03:47:02.568Z,100382.63
2022-10-22T03:49:29.756Z,100369.44
2022-10-22T03:51:56.749Z,100362.41
2022-10-22T03:54:23.498Z,100365.53
2022-10-22T03:56:50.414Z,100378.00
2022-10-22T03:59:17.133Z,100383.34
2022-10-22T04:01:44.079Z,100383.56
2022-10-22T04:04:10.783Z,100393.97
2022-10-22T04:06:37.782Z,100399.31
2022-10-22T04:09:04.829Z,100407.66
2022-10-22T04:11:31.845Z,100416.41
2022-10-22T04:13:58.657Z,100424.50
2022-10-22T04:16:30.899Z,100406.09
2022-10-22T04:18:57.667Z,100393.28
2022-10-22T04:21:25.027Z,100392.53
2022-10-22T04:23:53.264Z,100401.41
2022-10-22T04:26:21.302Z,100406.75
2022-10-22T04:28:49.987Z,100412.38
2022-10-22T04:31:20.168Z,100404.28
2022-10-22T04:33:47.111Z,100405.22
2022-10-22T04:36:17.658Z,100399.16
2022-10-22T04:38:46.821Z,100405.25
2022-10-22T04:41:15.297Z,100415.22
2022-10-22T04:43:42.872Z,100411.91
2022-10-22T04:46:11.078Z,100400.25
2022-10-22T04:48:39.621Z,100408.34
2022-10-22T04:51:07.954Z,100406.88
2022-10-22T04:53:38.098Z,100392.59
2022-10-22T04:56:19.888Z,100390.13
2022-10-22T04:58:48.862Z,100392.66
2022-10-22T05:01:21.418Z,100410.34
2022-10-22T05:03:50.069Z,100403.63
2022-10-22T05:06:17.950Z,100404.19
2022-10-22T05:08:44.873Z,100394.81
2022-10-22T05:11:17.954Z,100392.56
2022-10-22T05:13:45.388Z,100394.13
2022-10-22T05:16:13.232Z,100398.88
2022-10-22T05:18:42.625Z,100399.19
2022-10-22T05:21:14.548Z,100389.53
2022-10-22T05:23:42.113Z,100399.53
2022-10-22T05:26:11.582Z,100399.59
2022-10-22T05:28:39.123Z,100405.34
2022-10-22T05:31:08.183Z,100400.59
2022-10-22T05:33:35.046Z,100405.00
2022-10-22T05:36:04.062Z,100408.66
2022-10-22T05:38:32.493Z,100412.13
2022-10-22T05:41:05.180Z,100415.38
2022-10-22T05:43:32.604Z,100411.44
2022-10-22T05:46:04.562Z,100412.13
2022-10-22T05:51:13.098Z,100417.00
2022-10-22T05:53:42.227Z,100406.09
2022-10-22T05:56:15.734Z,100408.13
2022-10-22T05:58:45.871Z,100405.59
2022-10-22T06:01:16.308Z,100417.94
2022-10-22T06:03:44.224Z,100431.41
2022-10-22T06:06:27.071Z,100432.38
2022-10-22T06:08:55.358Z,100434.50
2022-10-22T06:11:23.954Z,100435.09
2022-10-22T06:13:51.820Z,100426.44
2022-10-22T06:16:18.967Z,100437.50
2022-10-22T06:18:45.860Z,100448.59
2022-10-22T06:21:16.076Z,100448.38
2022-10-22T06:23:43.818Z,100444.75
2022-10-22T06:26:13.903Z,100447.06
2022-10-22T06:28:40.848Z,100441.41
2022-10-22T06:31:07.807Z,100438.38
2022-10-22T06:33:37.184Z,100441.41
2022-10-22T06:36:18.971Z,100432.41
2022-10-22T06:38:45.915Z,100447.66
2022-10-22T06:41:15.343Z,100448.09
2022-10-22T06:43:49.591Z,100454.75
2022-10-22T06:46:20.166Z,100452.41
2022-10-22T06:49:05.823Z,100449.66
2022-10-22T06:51:32.879Z,100461.03
2022-10-22T06:53:59.638Z,100468.19
2022-10-22T06:56:29.008Z,100468.41
2022-10-22T06:58:57.402Z,100468.09
2022-10-22T07:01:27.272Z,100469.88
2022-10-22T07:03:54.692Z,100464.63
2022-10-22T07:06:23.026Z,100445.63
2022-10-22T07:08:50.136Z,100444.53
2022-10-22T07:11:24.869Z,100442.44
2022-10-22T07:13:53.795Z,100438.91
2022-10-22T07:16:20.943Z,100443.88
2022-10-22T07:18:48.431Z,100451.63
2022-10-22T07:21:17.919Z,100442.41
2022-10-22T07:23:45.364Z,100446.72
2022-10-22T07:26:15.586Z,100440.94
2022-10-22T07:28:42.954Z,100443.47
2022-10-22T07:31:12.307Z,100446.88
2022-10-22T07:34:22.319Z,100444.47
2022-10-22T07:37:14.101Z,100431.03
2022-10-22T07:40:06.335Z,100442.59
2022-10-22T07:42:48.029Z,100429.47
2022-10-22T07:45:15.064Z,100430.34
2022-10-22T07:47:42.107Z,100431.44
2022-10-22T07:50:09.854Z,100431.97
2022-10-22T07:52:36.573Z,100434.78
2022-10-22T07:55:04.143Z,100443.06
2022-10-22T07:57:31.774Z,100429.28
2022-10-22T07:59:59.219Z,100437.28
2022-10-22T08:02:26.076Z,100438.28
2022-10-22T08:04:53.020Z,100437.22
2022-10-22T08:07:19.813Z,100444.63
2022-10-22T08:09:46.793Z,100437.03
2022-10-22T08:12:13.574Z,100436.72
2022-10-22T08:14:40.569Z,100431.38
2022-10-22T08:17:07.316Z,100435.28
2022-10-22T08:19:35.419Z,100436.56
2022-10-22T08:22:02.743Z,100434.38
2022-10-22T08:24:29.792Z,100435.00
2022-10-22T08:26:56.577Z,100433.31
2022-10-22T08:29:24.595Z,100427.66
2022-10-22T08:31:51.374Z,100432.38
2022-10-22T08:34:18.299Z,100430.06
2022-10-22T08:36:45.073Z,100430.25
2022-10-22T08:39:12.199Z,100430.13
2022-10-22T08:42:00.128Z,100437.78
2022-10-22T08:44:29.957Z,100440.53
2022-10-22T08:47:06.111Z,100444.97
2022-10-22T08:49:38.484Z,100442.50
2022-10-22T08:52:15.841Z,100443.94
2022-10-22T08:54:56.267Z,100440.72
2022-10-22T08:57:47.617Z,100445.97
2022-10-22T09:00:24.068Z,100437.16
2022-10-22T09:03:21.951Z,100437.50
2022-10-22T09:06:04.051Z,100443.53
2022-10-22T09:08:31.004Z,100428.94
2022-10-22T09:11:17.677Z,100432.47
2022-10-22T09:13:46.208Z,100442.44
2022-10-22T09:16:38.682Z,100444.94
2022-10-22T09:19:11.302Z,100459.66
2022-10-22T09:22:16.039Z,100448.44
2022-10-22T09:24:48.007Z,100443.66
2022-10-22T09:27:27.595Z,100443.53
2022-10-22T09:29:54.367Z,100431.56
2022-10-22T09:32:21.391Z,100435.78
2022-10-22T09:34:49.357Z,100431.53
2022-10-22T09:37:18.979Z,100441.63
2022-10-22T09:39:50.903Z,100445.75
2022-10-22T09:42:20.519Z,100449.78
2022-10-22T09:44:58.374Z,100456.53
2022-10-22T09:48:01.838Z,100461.13
2022-10-22T09:50:28.742Z,100448.28
2022-10-22T09:53:12.247Z,100451.97
2022-10-22T09:55:40.472Z,100451.19
2022-10-22T09:58:14.183Z,100441.59
2022-10-22T10:00:43.727Z,100434.88
2022-10-22T10:03:21.532Z,100442.41
2022-10-22T10:05:51.588Z,100444.72
2022-10-22T10:08:19.288Z,100439.69
2022-10-22T10:10:50.273Z,100440.41
2022-10-22T10:13:47.917Z,100436.44
2022-10-22T10:16:31.084Z,100429.66
2022-10-22T10:19:35.165Z,100427.72
2022-10-22T10:22:04.427Z,100422.81
2022-10-22T10:24:43.332Z,100415.31
2022-10-22T10:27:20.339Z,100417.88
2022-10-22T10:30:02.880Z,100421.75
2022-10-22T10:32:57.635Z,100425.38
2022-10-22T10:35:55.136Z,100425.59
2022-10-22T10:38:53.155Z,100421.63
2022-10-22T10:41:25.147Z,100422.53
2022-10-22T10:44:10.415Z,100417.22
2022-10-22T10:46:54.498Z,100429.78
2022-10-22T10:49:26.750Z,100419.16
2022-10-22T10:51:56.816Z,100426.16
2022-10-22T10:54:51.077Z,100434.13
2022-10-22T10:57:45.849Z,100431.56
2022-10-22T11:00:16.617Z,100431.47
2022-10-22T11:03:13.243Z,100435.13
2022-10-22T11:06:00.194Z,100445.59
2022-10-22T11:08:30.547Z,100440.28
2022-10-22T11:13:57.788Z,100441.03
2022-10-22T11:16:37.395Z,100436.19
2022-10-22T11:19:15.521Z,100432.31
2022-10-22T11:21:59.522Z,100429.63
2022-10-22T11:24:53.867Z,100414.06
2022-10-22T11:27:50.420Z,100418.91
2022-10-22T11:30:23.315Z,100414.44
2022-10-22T11:32:57.683Z,100405.38
2022-10-22T11:35:28.842Z,100404.44
2022-10-22T11:37:57.114Z,100395.13
2022-10-22T11:40:29.788Z,100390.53
2022-10-22T11:43:06.050Z,100391.97
2022-10-22T11:45:43.153Z,100391.63
2022-10-22T11:48:09.894Z,100394.66
2022-10-22T11:50:56.712Z,100379.91
2022-10-22T11:53:26.265Z,100382.19
2022-10-22T11:55:56.263Z,100380.00
2022-10-22T11:58:29.041Z,100374.91
2022-10-22T12:00:55.965Z,100383.16
2022-10-22T12:03:28.495Z,100381.56
2022-10-22T12:06:15.513Z,100384.44
2022-10-22T12:08:46.096Z,100380.31
2022-10-22T12:11:33.933Z,100386.44
2022-10-22T12:14:28.074Z,100374.84
2022-10-22T12:17:03.239Z,100368.81
2022-10-22T12:19:39.338Z,100369.19
2022-10-22T12:22:06.233Z,100374.41
2022-10-22T12:24:37.722Z,100370.84
2022-10-22T12:27:04.685Z,100361.13
2022-10-22T12:29:32.914Z,100356.78
2022-10-22T12:32:04.392Z,100355.94
2022-10-22T12:34:31.163Z,100354.22
2022-10-22T12:36:58.067Z,100361.38
2022-10-22T12:39:27.219Z,100354.63
2022-10-22T12:41:54.897Z,100354.88
2022-10-22T12:44:21.726Z,100353.19
2022-10-22T12:46:53.094Z,100357.66
2022-10-22T12:49:28.589Z,100364.91
2022-10-22T12:51:55.500Z,100361.19
2022-10-22T12:54:28.945Z,100369.38
2022-10-22T12:56:56.320Z,100381.34
2022-10-22T12:59:34.833Z,100374.47
2022-10-22T13:02:02.689Z,100365.16
2022-10-22T13:04:35.626Z,100373.84
2022-10-22T13:07:15.975Z,100367.47
2022-10-22T13:09:56.745Z,100373.41
2022-10-22T13:12:28.641Z,100383.66
2022-10-22T13:14:55.474Z,100369.16
2022-10-22T13:17:42.239Z,100370.00
2022-10-22T13:20:27.350Z,100361.66
2022-10-22T13:23:00.564Z,100360.56
2022-10-22T13:25:30.556Z,100374.94
2022-10-22T13:28:06.803Z,100372.16
2022-10-22T13:30:36.517Z,100381.72
2022-10-22T13:33:06.737Z,100379.91
2022-10-22T13:35:38.247Z,100370.25
2022-10-22T13:38:19.569Z,100368.06
2022-10-22T13:40:46.768Z,100363.47
2022-10-22T13:43:14.207Z,100368.28
2022-10-22T13:45:41.070Z,100376.47
2022-10-22T13:48:13.857Z,100377.44
2022-10-22T13:50:41.142Z,100391.41
2022-10-22T13:53:18.859Z,100386.09
2022-10-22T13:55:46.204Z,100379.81
2022-10-22T13:58:31.127Z,100382.72
2022-10-22T14:00:59.881Z,100384.00
2022-10-22T14:03:33.366Z,100386.53
2022-10-22T14:06:00.894Z,100385.69
2022-10-22T14:08:28.280Z,100383.25
2022-10-22T14:10:55.453Z,100382.53
2022-10-22T14:13:22.633Z,100386.78
2022-10-22T14:15:50.766Z,100396.31
2022-10-22T14:18:26.653Z,100383.16
2022-10-22T14:20:56.950Z,100388.09
2022-10-22T14:23:27.419Z,100391.56
2022-10-22T14:25:54.612Z,100398.44
2022-10-22T14:28:21.735Z,100397.94
2022-10-22T14:30:49.294Z,100387.56
2022-10-22T14:33:28.850Z,100380.69
2022-10-22T14:35:59.656Z,100381.53
2022-10-22T14:38:26.626Z,100383.44
2022-10-22T14:40:53.715Z,100380.91
2022-10-22T14:43:23.592Z,100385.38
2022-10-22T14:45:51.056Z,100384.66
2022-10-22T14:50:47.959Z,100379.94
2022-10-22T14:53:16.704Z,100401.16
2022-10-22T14:55:44.487Z,100399.34
2022-10-22T14:58:12.351Z,100396.28
2022-10-22T15:00:41.657Z,100401.59
2022-10-22T15:03:09.338Z,100411.88
2022-10-22T15:05:42.123Z,100408.91
2022-10-22T15:08:09.075Z,100402.13
2022-10-22T15:10:35.845Z,100406.28
2022-10-22T15:13:02.826Z,100396.63
2022-10-22T15:15:34.022Z,100399.63
2022-10-22T15:18:02.489Z,100399.00
2022-10-22T15:20:29.315Z,100400.66
2022-10-22T15:22:56.505Z,100403.06
2022-10-22T15:25:23.216Z,100401.38
2022-10-22T15:27:51.769Z,100396.75
2022-10-22T15:30:20.845Z,100397.50
2022-10-22T15:32:47.804Z,100399.47
2022-10-22T15:35:14.554Z,100398.94
2022-10-22T15:37:41.505Z,100407.13
2022-10-22T15:40:08.804Z,100402.13
2022-10-22T15:42:35.799Z,100408.94
2022-10-22T15:45:02.584Z,100404.19
2022-10-22T15:47:31.183Z,100412.13
2022-10-22T15:49:58.788Z,100419.03
2022-10-22T15:52:25.736Z,100417.09
2022-10-22T15:54:52.491Z,100417.41
2022-10-22T15:57:19.438Z,100423.78
2022-10-22T15:59:47.042Z,100429.28
2022-10-22T16:02:15.511Z,100427.16
2022-10-22T16:04:42.598Z,100446.97
2022-10-22T16:07:09.558Z,100458.41
2022-10-22T16:09:36.328Z,100454.03
2022-10-22T16:12:03.276Z,100459.41
2022-10-22T16:14:30.368Z,100461.44
2022-10-22T16:16:57.556Z,100467.44
2022-10-22T16:19:24.675Z,100473.91
2022-10-22T16:21:54.017Z,100465.09
2022-10-22T16:24:21.301Z,100475.09
2022-10-22T16:26:48.673Z,100480.22
2022-10-22T16:29:16.115Z,100491.66
2022-10-22T16:31:44.033Z,100499.06
2022-10-22T16:34:11.636Z,100507.28
2022-10-22T16:36:38.914Z,100520.25
2022-10-22T16:39:06.732Z,100525.59
2022-10-22T16:41:36.913Z,100527.59
2022-10-22T16:44:07.720Z,100528.44
2022-10-22T16:46:38.429Z,100534.88
2022-10-22T16:49:06.496Z,100548.66
2022-10-22T16:51:34.351Z,100539.13
2022-10-22T16:54:01.331Z,100545.34
2022-10-22T16:56:28.429Z,100548.25
2022-10-22T16:58:57.067Z,100544.78
2022-10-22T17:01:26.931Z,100546.25
2022-10-22T17:03:59.551Z,100551.75
2022-10-22T17:06:27.089Z,100562.50
2022-10-22T17:08:54.308Z,100555.22
2022-10-22T17:11:23.578Z,100560.53
2022-10-22T17:13:53.515Z,100560.66
2022-10-22T17:16:23.127Z,100555.31
2022-10-22T17:18:50.201Z,100549.00
2022-10-22T17:21:19.056Z,100547.66
2022-10-22T17:23:47.920Z,100538.31
2022-10-22T17:26:19.631Z,100535.56
2022-10-22T17:28:47.062Z,100536.81
2022-10-22T17:31:28.107Z,100542.44
2022-10-22T17:33:56.518Z,100551.88
2022-10-22T17:36:24.866Z,100547.63
2022-10-22T17:38:54.467Z,100560.44
2022-10-22T17:41:24.710Z,100558.56
2022-10-22T17:43:51.680Z,100562.72
2022-10-22T17:46:27.326Z,100560.63
2022-10-22T17:48:59.822Z,100564.72
2022-10-22T17:51:29.588Z,100574.25
2022-10-22T17:53:56.992Z,100580.66
2022-10-22T17:56:27.943Z,100589.31
2022-10-22T17:58:55.966Z,100569.91
2022-10-22T18:01:25.501Z,100571.69
2022-10-22T18:03:54.093Z,100570.09
2022-10-22T18:06:22.166Z,100589.31
2022-10-22T18:08:49.508Z,100594.50
2022-10-22T18:11:20.724Z,100589.44
2022-10-22T18:13:56.071Z,100588.44
2022-10-22T18:16:24.813Z,100597.44
2022-10-22T18:18:54.596Z,100604.53
2022-10-22T18:21:24.031Z,100608.16
2022-10-22T18:23:51.153Z,100605.47
2022-10-22T18:26:20.346Z,100586.88
2022-10-22T18:28:49.705Z,100591.88
2022-10-22T18:31:22.502Z,100596.59
2022-10-22T18:33:50.029Z,100610.19
2022-10-22T18:36:20.894Z,100613.97
2022-10-22T18:38:56.332Z,100616.91
2022-10-22T18:41:24.258Z,100603.34
2022-10-22T18:43:59.255Z,100622.28
2022-10-22T18:46:28.223Z,100632.56
2022-10-22T18:48:57.567Z,100628.31
2022-10-22T18:51:26.623Z,100631.56
2022-10-22T18:54:05.877Z,100628.97
2022-10-22T18:56:43.885Z,100631.47
2022-10-22T18:59:21.987Z,100632.47
2022-10-22T19:01:49.339Z,100618.91
2022-10-22T19:04:16.288Z,100626.56
2022-10-22T19:06:45.697Z,100627.78
2022-10-22T19:09:14.715Z,100642.28
2022-10-22T19:11:43.585Z,100640.50
2022-10-22T19:14:10.561Z,100634.63
2022-10-22T19:16:37.668Z,100629.44
2022-10-22T19:19:07.045Z,100627.09
2022-10-22T19:21:35.277Z,100631.78
2022-10-22T19:24:02.892Z,100640.81
2022-10-22T19:26:34.136Z,100631.28
2022-10-22T19:29:02.868Z,100638.78
2022-10-22T19:31:31.232Z,100651.41
2022-10-22T19:34:00.008Z,100653.28
2022-10-22T19:36:28.761Z,100653.63
2022-10-22T19:38:56.304Z,100654.28
2022-10-22T19:41:26.078Z,100651.16
2022-10-22T19:43:54.415Z,100669.09
2022-10-22T19:46:23.077Z,100674.66
2022-10-22T19:48:53.214Z,100673.13
2022-10-22T19:51:22.693Z,100667.19
2022-10-22T19:53:49.989Z,100668.88
2022-10-22T19:56:19.568Z,100676.88
2022-10-22T19:58:46.733Z,100681.47
2022-10-22T20:01:16.166Z,100678.72
2022-10-22T20:03:43.860Z,100688.53
2022-10-22T20:06:12.346Z,100686.75
2022-10-22T20:08:39.641Z,100690.66
2022-10-22T20:11:10.840Z,100700.13
2022-10-22T20:16:10.162Z,100702.81
2022-10-22T20:18:38.528Z,100706.72
2022-10-22T20:21:11.927Z,100716.84
2022-10-22T20:23:38.934Z,100702.72
2022-10-22T20:26:06.246Z,100704.59
2022-10-22T20:28:33.032Z,100709.44
2022-10-22T20:31:00.077Z,100716.50
2022-10-22T20:33:26.875Z,100713.00
2022-10-22T20:36:01.413Z,100713.94
2022-10-22T20:38:28.967Z,100718.19
2022-10-22T20:41:22.841Z,100707.03
2022-10-22T20:43:51.363Z,100715.97
2022-10-22T20:46:23.504Z,100715.22
2022-10-22T20:48:52.244Z,100720.22
2022-10-22T20:51:19.737Z,100733.56
2022-10-22T20:53:46.712Z,100733.66
2022-10-22T20:56:14.355Z,100734.63
2022-10-22T20:58:47.615Z,100737.34
2022-10-22T21:01:22.171Z,100741.50
2022-10-22T21:03:50.728Z,100731.91
2022-10-22T21:06:21.049Z,100731.31
2022-10-22T21:08:47.896Z,100725.34
2022-10-22T21:11:14.874Z,100724.56
2022-10-22T21:13:41.633Z,100724.19
2022-10-22T21:16:12.596Z,100720.00
2022-10-22T21:18:39.382Z,100732.03
2022-10-22T21:21:07.719Z,100730.56
2022-10-22T21:23:35.872Z,100730.88
2022-10-22T21:26:03.206Z,100736.22
2022-10-22T21:28:34.420Z,100739.94
2022-10-22T21:31:06.114Z,100741.94
2022-10-22T21:33:37.246Z,100735.22
2022-10-22T21:36:06.776Z,100737.25
2022-10-22T21:38:34.579Z,100724.75
2022-10-22T21:41:09.199Z,100722.28
2022-10-22T21:43:40.887Z,100734.81
2022-10-22T21:46:10.790Z,100735.00
2022-10-22T21:48:38.695Z,100727.47
2022-10-22T21:51:08.884Z,100720.09
2022-10-22T21:53:36.347Z,100733.66
2022-10-22T21:56:04.301Z,100728.94
2022-10-22T21:58:31.295Z,100728.31
2022-10-22T22:00:58.565Z,100730.41
2022-10-22T22:03:25.371Z,100733.28
2022-10-22T22:05:58.720Z,100730.97
2022-10-22T22:08:25.945Z,100728.84
2022-10-22T22:10:53.753Z,100731.19
2022-10-22T22:13:24.899Z,100717.16
2022-10-22T22:15:52.587Z,100728.00
2022-10-22T22:18:20.224Z,100727.78
2022-10-22T22:20:47.188Z,100734.13
2022-10-22T22:23:13.936Z,100734.97
2022-10-22T22:25:40.891Z,100746.84
2022-10-22T22:28:07.660Z,100750.09
2022-10-22T22:30:34.610Z,100743.75
2022-10-22T22:33:01.345Z,100748.63
2022-10-22T22:35:28.889Z,100741.19
2022-10-22T22:37:55.763Z,100745.47
2022-10-22T22:40:23.456Z,100743.28
2022-10-22T22:42:50.224Z,100754.69
2022-10-22T22:45:17.263Z,100749.31
2022-10-22T22:47:44.230Z,100756.38
2022-10-22T22:50:11.471Z,100759.88
2022-10-22T22:52:38.321Z,100756.47
2022-10-22T22:55:06.043Z,100765.91
2022-10-22T22:57:32.820Z,100779.03
2022-10-22T22:59:59.759Z,100781.81
2022-10-22T23:02:26.559Z,100774.59
2022-10-22T23:04:53.480Z,100785.38
2022-10-22T23:07:20.235Z,100783.66
2022-10-22T23:09:47.268Z,100783.81
2022-10-22T23:12:14.189Z,100776.16
2022-10-22T23:14:41.150Z,100780.00
2022-10-22T23:17:07.907Z,100781.47
2022-10-22T23:19:34.868Z,100784.34
2022-10-22T23:22:01.676Z,100785.13
2022-10-22T23:24:30.044Z,100781.66
2022-10-22T23:27:00.995Z,100770.78
2022-10-22T23:29:30.202Z,100770.34
2022-10-22T23:32:00.195Z,100773.19
2022-10-22T23:34:27.977Z,100767.00
2022-10-22T23:36:55.935Z,100773.50
2022-10-22T23:39:25.122Z,100778.09
2022-10-22T23:41:53.204Z,100774.75
2022-10-22T23:44:21.794Z,100772.13
2022-10-22T23:46:49.352Z,100773.22
2022-10-22T23:49:17.075Z,100773.75
2022-10-22T23:51:44.106Z,100766.59
2022-10-22T23:54:13.886Z,100775.97
2022-10-22T23:56:40.893Z,100784.22
2022-10-22T23:59:08.913Z,100790.16
